sensor_id;sensor_type;location;lat;lon;timestamp;temperature;humidity
18777;DHT22;9517;51.174;4.160;2023-02-03T00:00:02;9.60;99.90
18777;DHT22;9517;51.174;4.160;2023-02-03T00:02:29;9.50;99.90
18777;DHT22;9517;51.174;4.160;2023-02-03T00:04:57;9.50;99.90
18777;DHT22;9517;51.174;4.160;2023-02-03T00:07:24;9.50;99.90
18777;DHT22;9517;51.174;4.160;2023-02-03T00:09:51;9.50;99.90
18777;DHT22;9517;51.174;4.160;2023-02-03T00:12:18;9.50;99.90
18777;DHT22;9517;51.174;4.160;2023-02-03T00:14:47;9.60;99.90
18777;DHT22;9517;51.174;4.160;2023-02-03T00:17:18;9.60;99.90
18777;DHT22;9517;51.174;4.160;2023-02-03T00:19:45;9.60;99.90
18777;DHT22;9517;51.174;4.160;2023-02-03T00:22:12;9.60;99.90
18777;DHT22;9517;51.174;4.160;2023-02-03T00:24:39;9.60;99.90
18777;DHT22;9517;51.174;4.160;2023-02-03T00:27:07;9.60;99.90
18777;DHT22;9517;51.174;4.160;2023-02-03T00:29:34;9.70;99.90
18777;DHT22;9517;51.174;4.160;2023-02-03T00:32:04;9.70;99.90
18777;DHT22;9517;51.174;4.160;2023-02-03T00:34:31;9.70;99.90
18777;DHT22;9517;51.174;4.160;2023-02-03T00:36:58;9.60;99.90
18777;DHT22;9517;51.174;4.160;2023-02-03T00:39:26;9.60;99.90
18777;DHT22;9517;51.174;4.160;2023-02-03T00:41:53;9.60;99.90
18777;DHT22;9517;51.174;4.160;2023-02-03T00:44:20;9.60;99.90
18777;DHT22;9517;51.174;4.160;2023-02-03T00:46:47;9.60;99.90
18777;DHT22;9517;51.174;4.160;2023-02-03T00:49:16;9.60;99.90
18777;DHT22;9517;51.174;4.160;2023-02-03T00:51:44;9.60;99.90
18777;DHT22;9517;51.174;4.160;2023-02-03T00:54:11;9.60;99.90
18777;DHT22;9517;51.174;4.160;2023-02-03T00:56:39;9.60;99.90
18777;DHT22;9517;51.174;4.160;2023-02-03T00:59:06;9.70;99.90
18777;DHT22;9517;51.174;4.160;2023-02-03T01:01:34;9.60;99.90
18777;DHT22;9517;51.174;4.160;2023-02-03T01:04:04;9.70;99.90
18777;DHT22;9517;51.174;4.160;2023-02-03T01:06:33;9.70;99.90
18777;DHT22;9517;51.174;4.160;2023-02-03T01:09:01;9.70;99.90
18777;DHT22;9517;51.174;4.160;2023-02-03T01:11:29;9.70;99.90
18777;DHT22;9517;51.174;4.160;2023-02-03T01:13:58;9.70;99.90
18777;DHT22;9517;51.174;4.160;2023-02-03T01:16:28;9.80;99.90
18777;DHT22;9517;51.174;4.160;2023-02-03T01:18:56;9.80;99.90
18777;DHT22;9517;51.174;4.160;2023-02-03T01:21:25;9.80;99.90
18777;DHT22;9517;51.174;4.160;2023-02-03T01:23:53;9.80;99.90
18777;DHT22;9517;51.174;4.160;2023-02-03T01:26:22;9.80;99.90
18777;DHT22;9517;51.174;4.160;2023-02-03T01:28:50;9.80;99.90
18777;DHT22;9517;51.174;4.160;2023-02-03T01:31:19;9.80;99.90
18777;DHT22;9517;51.174;4.160;2023-02-03T01:33:47;9.80;99.90
18777;DHT22;9517;51.174;4.160;2023-02-03T01:36:15;9.80;99.90
18777;DHT22;9517;51.174;4.160;2023-02-03T01:38:43;9.70;99.90
18777;DHT22;9517;51.174;4.160;2023-02-03T01:41:14;9.80;99.90
18777;DHT22;9517;51.174;4.160;2023-02-03T01:43:43;9.80;99.90
18777;DHT22;9517;51.174;4.160;2023-02-03T01:46:21;9.80;99.90
18777;DHT22;9517;51.174;4.160;2023-02-03T01:48:51;9.80;99.90
18777;DHT22;9517;51.174;4.160;2023-02-03T01:51:19;9.80;99.90
18777;DHT22;9517;51.174;4.160;2023-02-03T01:53:47;9.80;99.90
18777;DHT22;9517;51.174;4.160;2023-02-03T01:56:17;9.80;99.90
18777;DHT22;9517;51.174;4.160;2023-02-03T01:58:45;9.80;99.90
18777;DHT22;9517;51.174;4.160;2023-02-03T02:01:15;9.80;99.90
18777;DHT22;9517;51.174;4.160;2023-02-03T02:03:49;9.80;99.90
18777;DHT22;9517;51.174;4.160;2023-02-03T02:06:17;9.80;99.90
18777;DHT22;9517;51.174;4.160;2023-02-03T02:08:47;9.80;99.90
18777;DHT22;9517;51.174;4.160;2023-02-03T02:11:16;9.80;99.90
18777;DHT22;9517;51.174;4.160;2023-02-03T02:13:46;9.80;99.90
18777;DHT22;9517;51.174;4.160;2023-02-03T02:16:21;9.80;99.90
18777;DHT22;9517;51.174;4.160;2023-02-03T02:19:18;9.80;99.90
18777;DHT22;9517;51.174;4.160;2023-02-03T02:22:05;9.70;99.90
18777;DHT22;9517;51.174;4.160;2023-02-03T02:24:57;9.80;99.90
18777;DHT22;9517;51.174;4.160;2023-02-03T02:28:07;9.80;99.90
18777;DHT22;9517;51.174;4.160;2023-02-03T02:30:47;9.80;99.90
18777;DHT22;9517;51.174;4.160;2023-02-03T02:33:33;9.80;99.90
18777;DHT22;9517;51.174;4.160;2023-02-03T02:36:09;9.80;99.90
18777;DHT22;9517;51.174;4.160;2023-02-03T02:38:45;9.80;99.90
18777;DHT22;9517;51.174;4.160;2023-02-03T02:41:18;9.90;99.90
18777;DHT22;9517;51.174;4.160;2023-02-03T02:43:56;9.80;99.90
18777;DHT22;9517;51.174;4.160;2023-02-03T02:46:30;9.80;99.90
18777;DHT22;9517;51.174;4.160;2023-02-03T02:49:05;9.80;99.90
18777;DHT22;9517;51.174;4.160;2023-02-03T02:51:34;9.80;99.90
18777;DHT22;9517;51.174;4.160;2023-02-03T02:54:06;9.90;99.90
18777;DHT22;9517;51.174;4.160;2023-02-03T02:56:36;9.80;99.90
18777;DHT22;9517;51.174;4.160;2023-02-03T02:59:06;9.80;99.90
18777;DHT22;9517;51.174;4.160;2023-02-03T03:01:33;9.80;99.90
18777;DHT22;9517;51.174;4.160;2023-02-03T03:04:06;9.80;99.90
18777;DHT22;9517;51.174;4.160;2023-02-03T03:06:43;9.80;99.90
18777;DHT22;9517;51.174;4.160;2023-02-03T03:09:15;9.80;99.90
18777;DHT22;9517;51.174;4.160;2023-02-03T03:11:50;9.80;99.90
18777;DHT22;9517;51.174;4.160;2023-02-03T03:14:19;9.70;99.90
18777;DHT22;9517;51.174;4.160;2023-02-03T03:16:50;9.70;99.90
18777;DHT22;9517;51.174;4.160;2023-02-03T03:19:23;9.70;99.90
18777;DHT22;9517;51.174;4.160;2023-02-03T03:22:03;9.70;99.90
18777;DHT22;9517;51.174;4.160;2023-02-03T03:24:33;9.70;99.90
18777;DHT22;9517;51.174;4.160;2023-02-03T03:27:07;9.70;99.90
18777;DHT22;9517;51.174;4.160;2023-02-03T03:29:39;9.80;99.90
18777;DHT22;9517;51.174;4.160;2023-02-03T03:32:08;9.80;99.90
18777;DHT22;9517;51.174;4.160;2023-02-03T03:34:37;9.80;99.90
18777;DHT22;9517;51.174;4.160;2023-02-03T03:37:10;9.70;99.90
18777;DHT22;9517;51.174;4.160;2023-02-03T03:39:45;9.70;99.90
18777;DHT22;9517;51.174;4.160;2023-02-03T03:42:19;9.80;99.90
18777;DHT22;9517;51.174;4.160;2023-02-03T03:44:52;9.70;99.90
18777;DHT22;9517;51.174;4.160;2023-02-03T03:47:27;9.70;99.90
18777;DHT22;9517;51.174;4.160;2023-02-03T03:50:00;9.70;99.90
18777;DHT22;9517;51.174;4.160;2023-02-03T03:52:30;9.70;99.90
18777;DHT22;9517;51.174;4.160;2023-02-03T03:55:00;9.70;99.90
18777;DHT22;9517;51.174;4.160;2023-02-03T03:57:35;9.70;99.90
18777;DHT22;9517;51.174;4.160;2023-02-03T04:00:07;9.70;99.90
18777;DHT22;9517;51.174;4.160;2023-02-03T04:02:39;9.70;99.90
18777;DHT22;9517;51.174;4.160;2023-02-03T04:05:11;9.70;99.90
18777;DHT22;9517;51.174;4.160;2023-02-03T04:07:41;9.60;99.90
18777;DHT22;9517;51.174;4.160;2023-02-03T04:10:17;9.70;99.90
18777;DHT22;9517;51.174;4.160;2023-02-03T04:12:46;9.70;99.90
18777;DHT22;9517;51.174;4.160;2023-02-03T04:15:14;9.60;99.90
18777;DHT22;9517;51.174;4.160;2023-02-03T04:17:41;9.60;99.90
18777;DHT22;9517;51.174;4.160;2023-02-03T04:20:11;9.60;99.90
18777;DHT22;9517;51.174;4.160;2023-02-03T04:22:38;9.70;99.90
18777;DHT22;9517;51.174;4.160;2023-02-03T04:25:06;9.70;99.90
18777;DHT22;9517;51.174;4.160;2023-02-03T04:27:34;9.60;99.90
18777;DHT22;9517;51.174;4.160;2023-02-03T04:30:01;9.60;99.90
18777;DHT22;9517;51.174;4.160;2023-02-03T04:32:28;9.60;99.90
18777;DHT22;9517;51.174;4.160;2023-02-03T04:34:56;9.60;99.90
18777;DHT22;9517;51.174;4.160;2023-02-03T04:37:25;9.60;99.90
18777;DHT22;9517;51.174;4.160;2023-02-03T04:39:53;9.60;99.90
18777;DHT22;9517;51.174;4.160;2023-02-03T04:42:23;9.60;99.90
18777;DHT22;9517;51.174;4.160;2023-02-03T04:44:51;9.60;99.90
18777;DHT22;9517;51.174;4.160;2023-02-03T04:47:18;9.60;99.90
18777;DHT22;9517;51.174;4.160;2023-02-03T04:49:46;9.60;99.90
18777;DHT22;9517;51.174;4.160;2023-02-03T04:52:13;9.60;99.90
18777;DHT22;9517;51.174;4.160;2023-02-03T04:54:42;9.60;99.90
18777;DHT22;9517;51.174;4.160;2023-02-03T04:57:09;9.60;99.90
18777;DHT22;9517;51.174;4.160;2023-02-03T04:59:55;9.60;99.90
18777;DHT22;9517;51.174;4.160;2023-02-03T05:09:34;9.60;99.90
18777;DHT22;9517;51.174;4.160;2023-02-03T05:12:03;9.60;99.90
18777;DHT22;9517;51.174;4.160;2023-02-03T05:15:12;9.60;99.90
18777;DHT22;9517;51.174;4.160;2023-02-03T05:17:53;9.60;99.90
18777;DHT22;9517;51.174;4.160;2023-02-03T05:20:21;9.60;99.90
18777;DHT22;9517;51.174;4.160;2023-02-03T05:22:59;9.60;99.90
18777;DHT22;9517;51.174;4.160;2023-02-03T05:34:12;9.60;99.90
18777;DHT22;9517;51.174;4.160;2023-02-03T05:41:09;9.60;99.90
18777;DHT22;9517;51.174;4.160;2023-02-03T05:43:54;9.60;99.90
18777;DHT22;9517;51.174;4.160;2023-02-03T05:46:22;9.50;99.90
18777;DHT22;9517;51.174;4.160;2023-02-03T05:48:50;9.50;99.90
18777;DHT22;9517;51.174;4.160;2023-02-03T05:51:19;9.50;99.90
18777;DHT22;9517;51.174;4.160;2023-02-03T05:53:47;9.50;99.90
18777;DHT22;9517;51.174;4.160;2023-02-03T05:56:15;9.40;99.90
18777;DHT22;9517;51.174;4.160;2023-02-03T05:58:43;9.50;99.90
18777;DHT22;9517;51.174;4.160;2023-02-03T06:01:32;9.50;99.90
18777;DHT22;9517;51.174;4.160;2023-02-03T06:07:33;9.50;99.90
18777;DHT22;9517;51.174;4.160;2023-02-03T06:10:07;9.40;99.90
18777;DHT22;9517;51.174;4.160;2023-02-03T06:12:35;9.40;99.90
18777;DHT22;9517;51.174;4.160;2023-02-03T06:15:03;9.40;99.90
18777;DHT22;9517;51.174;4.160;2023-02-03T06:17:31;9.40;99.90
18777;DHT22;9517;51.174;4.160;2023-02-03T06:20:01;9.40;99.90
18777;DHT22;9517;51.174;4.160;2023-02-03T06:22:28;9.40;99.90
18777;DHT22;9517;51.174;4.160;2023-02-03T06:24:57;9.30;99.90
18777;DHT22;9517;51.174;4.160;2023-02-03T06:27:37;9.40;99.90
18777;DHT22;9517;51.174;4.160;2023-02-03T06:30:08;9.30;99.90
18777;DHT22;9517;51.174;4.160;2023-02-03T06:32:35;9.40;99.90
18777;DHT22;9517;51.174;4.160;2023-02-03T06:35:15;9.40;99.90
18777;DHT22;9517;51.174;4.160;2023-02-03T06:37:43;9.50;99.90
18777;DHT22;9517;51.174;4.160;2023-02-03T06:40:49;9.50;99.90
18777;DHT22;9517;51.174;4.160;2023-02-03T06:43:17;9.60;99.90
18777;DHT22;9517;51.174;4.160;2023-02-03T06:45:47;9.60;99.90
18777;DHT22;9517;51.174;4.160;2023-02-03T06:48:17;9.50;99.90
18777;DHT22;9517;51.174;4.160;2023-02-03T06:50:49;9.60;99.90
18777;DHT22;9517;51.174;4.160;2023-02-03T06:53:19;9.50;99.90
18777;DHT22;9517;51.174;4.160;2023-02-03T06:58:49;9.50;99.90
18777;DHT22;9517;51.174;4.160;2023-02-03T07:01:30;9.50;99.90
18777;DHT22;9517;51.174;4.160;2023-02-03T07:04:15;9.50;99.90
18777;DHT22;9517;51.174;4.160;2023-02-03T07:07:03;9.50;99.90
18777;DHT22;9517;51.174;4.160;2023-02-03T07:09:34;9.50;99.90
18777;DHT22;9517;51.174;4.160;2023-02-03T07:15:30;9.50;99.90
18777;DHT22;9517;51.174;4.160;2023-02-03T07:18:02;9.40;99.90
18777;DHT22;9517;51.174;4.160;2023-02-03T07:21:02;9.40;99.90
18777;DHT22;9517;51.174;4.160;2023-02-03T07:38:52;9.40;99.90
18777;DHT22;9517;51.174;4.160;2023-02-03T07:41:20;9.40;99.90
18777;DHT22;9517;51.174;4.160;2023-02-03T07:43:59;9.40;99.90
18777;DHT22;9517;51.174;4.160;2023-02-03T07:46:33;9.40;99.90
18777;DHT22;9517;51.174;4.160;2023-02-03T07:49:04;9.40;99.90
18777;DHT22;9517;51.174;4.160;2023-02-03T07:51:32;9.50;99.90
18777;DHT22;9517;51.174;4.160;2023-02-03T07:54:01;9.40;99.90
18777;DHT22;9517;51.174;4.160;2023-02-03T07:56:32;9.50;99.90
18777;DHT22;9517;51.174;4.160;2023-02-03T07:59:07;9.50;99.90
18777;DHT22;9517;51.174;4.160;2023-02-03T08:01:38;9.50;99.90
18777;DHT22;9517;51.174;4.160;2023-02-03T08:04:10;9.50;99.90
18777;DHT22;9517;51.174;4.160;2023-02-03T08:06:44;9.40;99.90
18777;DHT22;9517;51.174;4.160;2023-02-03T08:09:15;9.50;99.90
18777;DHT22;9517;51.174;4.160;2023-02-03T08:11:49;9.50;99.90
18777;DHT22;9517;51.174;4.160;2023-02-03T08:14:20;9.50;99.90
18777;DHT22;9517;51.174;4.160;2023-02-03T08:17:06;9.50;99.90
18777;DHT22;9517;51.174;4.160;2023-02-03T08:19:33;9.60;99.90
18777;DHT22;9517;51.174;4.160;2023-02-03T08:22:13;9.70;99.90
18777;DHT22;9517;51.174;4.160;2023-02-03T08:24:46;9.70;99.90
18777;DHT22;9517;51.174;4.160;2023-02-03T08:30:55;9.80;99.90
18777;DHT22;9517;51.174;4.160;2023-02-03T08:37:22;9.80;99.90
18777;DHT22;9517;51.174;4.160;2023-02-03T08:40:30;9.80;99.90
18777;DHT22;9517;51.174;4.160;2023-02-03T08:43:59;9.90;99.90
18777;DHT22;9517;51.174;4.160;2023-02-03T08:46:43;9.80;99.90
18777;DHT22;9517;51.174;4.160;2023-02-03T08:49:29;9.90;99.90
18777;DHT22;9517;51.174;4.160;2023-02-03T08:52:13;10.00;99.90
18777;DHT22;9517;51.174;4.160;2023-02-03T08:55:04;10.10;99.90
18777;DHT22;9517;51.174;4.160;2023-02-03T08:57:53;10.10;99.90
18777;DHT22;9517;51.174;4.160;2023-02-03T09:00:37;10.10;99.90
18777;DHT22;9517;51.174;4.160;2023-02-03T09:03:19;10.10;99.90
18777;DHT22;9517;51.174;4.160;2023-02-03T09:05:50;10.10;99.90
18777;DHT22;9517;51.174;4.160;2023-02-03T09:08:30;10.10;99.90
18777;DHT22;9517;51.174;4.160;2023-02-03T09:11:09;10.20;99.90
18777;DHT22;9517;51.174;4.160;2023-02-03T09:13:40;10.20;99.90
18777;DHT22;9517;51.174;4.160;2023-02-03T09:16:11;10.30;99.90
18777;DHT22;9517;51.174;4.160;2023-02-03T09:18:39;10.30;99.90
18777;DHT22;9517;51.174;4.160;2023-02-03T09:21:08;10.30;99.90
18777;DHT22;9517;51.174;4.160;2023-02-03T09:23:37;10.30;99.90
18777;DHT22;9517;51.174;4.160;2023-02-03T09:26:11;10.30;99.90
18777;DHT22;9517;51.174;4.160;2023-02-03T09:28:41;10.40;99.90
18777;DHT22;9517;51.174;4.160;2023-02-03T09:31:12;10.50;99.90
18777;DHT22;9517;51.174;4.160;2023-02-03T09:33:57;10.50;99.90
18777;DHT22;9517;51.174;4.160;2023-02-03T09:36:34;10.50;99.90
18777;DHT22;9517;51.174;4.160;2023-02-03T09:39:10;10.50;99.90
18777;DHT22;9517;51.174;4.160;2023-02-03T09:41:56;10.50;99.90
18777;DHT22;9517;51.174;4.160;2023-02-03T09:44:57;10.80;99.90
18777;DHT22;9517;51.174;4.160;2023-02-03T09:47:36;10.90;99.90
18777;DHT22;9517;51.174;4.160;2023-02-03T09:50:26;11.00;99.90
18777;DHT22;9517;51.174;4.160;2023-02-03T09:53:01;11.00;99.90
18777;DHT22;9517;51.174;4.160;2023-02-03T09:56:03;11.00;99.90
18777;DHT22;9517;51.174;4.160;2023-02-03T09:58:41;11.10;99.90
18777;DHT22;9517;51.174;4.160;2023-02-03T10:01:54;11.20;99.90
18777;DHT22;9517;51.174;4.160;2023-02-03T10:05:24;11.40;99.90
18777;DHT22;9517;51.174;4.160;2023-02-03T10:08:06;11.30;99.90
18777;DHT22;9517;51.174;4.160;2023-02-03T10:12:19;11.30;99.90
18777;DHT22;9517;51.174;4.160;2023-02-03T10:14:57;11.30;99.90
18777;DHT22;9517;51.174;4.160;2023-02-03T10:21:09;11.20;99.90
18777;DHT22;9517;51.174;4.160;2023-02-03T10:26:57;11.30;99.90
18777;DHT22;9517;51.174;4.160;2023-02-03T10:29:43;11.30;99.90
18777;DHT22;9517;51.174;4.160;2023-02-03T10:32:48;11.20;99.90
18777;DHT22;9517;51.174;4.160;2023-02-03T10:35:48;11.30;99.90
18777;DHT22;9517;51.174;4.160;2023-02-03T10:38:54;11.30;99.90
18777;DHT22;9517;51.174;4.160;2023-02-03T10:41:53;11.40;99.90
18777;DHT22;9517;51.174;4.160;2023-02-03T10:45:01;11.30;99.90
18777;DHT22;9517;51.174;4.160;2023-02-03T10:48:18;11.20;99.90
18777;DHT22;9517;51.174;4.160;2023-02-03T10:53:31;11.20;99.90
18777;DHT22;9517;51.174;4.160;2023-02-03T10:56:20;11.20;99.90
18777;DHT22;9517;51.174;4.160;2023-02-03T10:59:51;11.10;99.90
18777;DHT22;9517;51.174;4.160;2023-02-03T12:33:09;11.20;99.90
18777;DHT22;9517;51.174;4.160;2023-02-03T12:35:46;11.20;99.90
18777;DHT22;9517;51.174;4.160;2023-02-03T12:38:33;11.30;99.90
18777;DHT22;9517;51.174;4.160;2023-02-03T12:41:12;11.30;99.90
18777;DHT22;9517;51.174;4.160;2023-02-03T12:43:46;11.20;99.90
18777;DHT22;9517;51.174;4.160;2023-02-03T12:46:20;11.10;99.90
18777;DHT22;9517;51.174;4.160;2023-02-03T12:49:01;11.20;99.90
18777;DHT22;9517;51.174;4.160;2023-02-03T12:51:41;11.30;99.90
18777;DHT22;9517;51.174;4.160;2023-02-03T12:54:22;11.30;99.90
18777;DHT22;9517;51.174;4.160;2023-02-03T12:56:56;11.30;99.90
18777;DHT22;9517;51.174;4.160;2023-02-03T14:18:00;11.20;99.90
18777;DHT22;9517;51.174;4.160;2023-02-03T14:41:04;11.30;99.90
18777;DHT22;9517;51.174;4.160;2023-02-03T14:47:20;11.20;99.90
18777;DHT22;9517;51.174;4.160;2023-02-03T14:53:37;11.10;99.90
18777;DHT22;9517;51.174;4.160;2023-02-03T14:56:17;11.10;99.90
18777;DHT22;9517;51.174;4.160;2023-02-03T15:08:46;11.10;99.90
18777;DHT22;9517;51.174;4.160;2023-02-03T15:15:12;11.10;99.90
18777;DHT22;9517;51.174;4.160;2023-02-03T15:17:39;11.10;99.90
18777;DHT22;9517;51.174;4.160;2023-02-03T15:20:28;11.10;99.90
18777;DHT22;9517;51.174;4.160;2023-02-03T15:22:56;11.10;99.90
18777;DHT22;9517;51.174;4.160;2023-02-03T15:25:24;11.20;99.90
18777;DHT22;9517;51.174;4.160;2023-02-03T15:28:12;11.10;99.90
18777;DHT22;9517;51.174;4.160;2023-02-03T15:30:43;11.10;99.90
18777;DHT22;9517;51.174;4.160;2023-02-03T15:33:15;11.10;99.90
18777;DHT22;9517;51.174;4.160;2023-02-03T15:35:45;11.10;99.90
18777;DHT22;9517;51.174;4.160;2023-02-03T15:38:17;11.00;99.90
18777;DHT22;9517;51.174;4.160;2023-02-03T15:40:48;11.00;99.90
18777;DHT22;9517;51.174;4.160;2023-02-03T15:43:20;10.90;99.90
18777;DHT22;9517;51.174;4.160;2023-02-03T15:45:58;10.90;99.90
18777;DHT22;9517;51.174;4.160;2023-02-03T15:48:33;10.80;99.90
18777;DHT22;9517;51.174;4.160;2023-02-03T15:51:09;10.90;99.90
18777;DHT22;9517;51.174;4.160;2023-02-03T15:53:45;10.90;99.90
18777;DHT22;9517;51.174;4.160;2023-02-03T15:56:21;10.80;99.90
18777;DHT22;9517;51.174;4.160;2023-02-03T15:58:52;10.80;99.90
18777;DHT22;9517;51.174;4.160;2023-02-03T16:01:25;10.80;99.90
18777;DHT22;9517;51.174;4.160;2023-02-03T16:03:55;10.70;99.90
18777;DHT22;9517;51.174;4.160;2023-02-03T16:06:25;10.70;99.90
18777;DHT22;9517;51.174;4.160;2023-02-03T16:08:56;10.60;99.90
18777;DHT22;9517;51.174;4.160;2023-02-03T16:11:32;10.50;99.90
18777;DHT22;9517;51.174;4.160;2023-02-03T16:28:34;10.20;99.90
18777;DHT22;9517;51.174;4.160;2023-02-03T16:31:40;10.20;99.90
18777;DHT22;9517;51.174;4.160;2023-02-03T16:34:57;10.10;99.90
18777;DHT22;9517;51.174;4.160;2023-02-03T16:37:44;10.10;99.90
18777;DHT22;9517;51.174;4.160;2023-02-03T16:40:28;10.10;99.90
18777;DHT22;9517;51.174;4.160;2023-02-03T16:43:14;10.10;99.90
18777;DHT22;9517;51.174;4.160;2023-02-03T16:46:00;10.10;99.90
18777;DHT22;9517;51.174;4.160;2023-02-03T16:48:48;10.10;99.90
18777;DHT22;9517;51.174;4.160;2023-02-03T16:51:37;10.20;99.90
18777;DHT22;9517;51.174;4.160;2023-02-03T17:04:19;10.20;99.90
18777;DHT22;9517;51.174;4.160;2023-02-03T17:07:06;10.10;99.90
18777;DHT22;9517;51.174;4.160;2023-02-03T17:09:47;10.10;99.90
18777;DHT22;9517;51.174;4.160;2023-02-03T17:15:39;10.00;99.90
18777;DHT22;9517;51.174;4.160;2023-02-03T17:18:42;10.00;99.90
18777;DHT22;9517;51.174;4.160;2023-02-03T17:47:37;10.20;99.90
18777;DHT22;9517;51.174;4.160;2023-02-03T17:50:13;10.20;99.90
18777;DHT22;9517;51.174;4.160;2023-02-03T17:52:42;10.20;99.90
18777;DHT22;9517;51.174;4.160;2023-02-03T17:55:10;10.20;99.90
18777;DHT22;9517;51.174;4.160;2023-02-03T17:58:24;10.30;99.90
18777;DHT22;9517;51.174;4.160;2023-02-03T18:00:37;10.40;99.90
18777;DHT22;9517;51.174;4.160;2023-02-03T18:03:05;10.40;99.90
18777;DHT22;9517;51.174;4.160;2023-02-03T18:12:38;10.50;99.90
18777;DHT22;9517;51.174;4.160;2023-02-03T18:15:10;10.50;99.90
18777;DHT22;9517;51.174;4.160;2023-02-03T18:21:25;10.50;99.90
18777;DHT22;9517;51.174;4.160;2023-02-03T18:27:13;10.50;99.90
18777;DHT22;9517;51.174;4.160;2023-02-03T18:29:52;10.50;99.90
18777;DHT22;9517;51.174;4.160;2023-02-03T18:32:25;10.60;99.90
18777;DHT22;9517;51.174;4.160;2023-02-03T18:38:17;10.50;99.90
18777;DHT22;9517;51.174;4.160;2023-02-03T18:40:46;10.60;99.90
18777;DHT22;9517;51.174;4.160;2023-02-03T18:43:17;10.60;99.90
18777;DHT22;9517;51.174;4.160;2023-02-03T18:45:47;10.70;99.90
18777;DHT22;9517;51.174;4.160;2023-02-03T18:55:10;10.70;99.90
18777;DHT22;9517;51.174;4.160;2023-02-03T18:57:43;10.60;99.90
18777;DHT22;9517;51.174;4.160;2023-02-03T19:00:35;10.70;99.90
18777;DHT22;9517;51.174;4.160;2023-02-03T19:03:05;10.70;99.90
18777;DHT22;9517;51.174;4.160;2023-02-03T19:15:26;10.70;99.90
18777;DHT22;9517;51.174;4.160;2023-02-03T19:18:15;10.70;99.90
18777;DHT22;9517;51.174;4.160;2023-02-03T19:20:43;10.70;99.90
18777;DHT22;9517;51.174;4.160;2023-02-03T19:23:54;10.70;99.90
18777;DHT22;9517;51.174;4.160;2023-02-03T19:26:26;10.70;99.90
18777;DHT22;9517;51.174;4.160;2023-02-03T19:39:23;10.70;99.90
18777;DHT22;9517;51.174;4.160;2023-02-03T19:42:07;10.70;99.90
18777;DHT22;9517;51.174;4.160;2023-02-03T19:48:03;10.80;99.90
18777;DHT22;9517;51.174;4.160;2023-02-03T19:50:31;10.90;99.90
18777;DHT22;9517;51.174;4.160;2023-02-03T19:53:10;10.80;99.90
18777;DHT22;9517;51.174;4.160;2023-02-03T19:55:41;10.70;99.90
18777;DHT22;9517;51.174;4.160;2023-02-03T19:58:12;10.70;99.90
18777;DHT22;9517;51.174;4.160;2023-02-03T20:01:00;10.70;99.90
18777;DHT22;9517;51.174;4.160;2023-02-03T20:03:32;10.70;99.90
18777;DHT22;9517;51.174;4.160;2023-02-03T20:06:08;10.60;99.90
18777;DHT22;9517;51.174;4.160;2023-02-03T21:19:51;9.80;99.90
18777;DHT22;9517;51.174;4.160;2023-02-03T21:22:22;9.80;99.90
18777;DHT22;9517;51.174;4.160;2023-02-03T21:24:56;9.80;99.90
18777;DHT22;9517;51.174;4.160;2023-02-03T21:27:26;9.80;99.90
18777;DHT22;9517;51.174;4.160;2023-02-03T21:29:54;9.80;99.90
18777;DHT22;9517;51.174;4.160;2023-02-03T21:32:23;9.80;99.90
18777;DHT22;9517;51.174;4.160;2023-02-03T21:34:52;9.90;99.90
18777;DHT22;9517;51.174;4.160;2023-02-03T21:37:47;9.90;99.90
18777;DHT22;9517;51.174;4.160;2023-02-03T21:40:22;9.90;99.90
18777;DHT22;9517;51.174;4.160;2023-02-03T21:42:50;9.90;99.90
18777;DHT22;9517;51.174;4.160;2023-02-03T21:45:29;9.80;99.90
18777;DHT22;9517;51.174;4.160;2023-02-03T21:48:00;9.80;99.90
18777;DHT22;9517;51.174;4.160;2023-02-03T21:50:31;9.80;99.90
18777;DHT22;9517;51.174;4.160;2023-02-03T21:53:15;9.90;99.90
18777;DHT22;9517;51.174;4.160;2023-02-03T21:55:45;9.90;99.90
18777;DHT22;9517;51.174;4.160;2023-02-03T21:58:20;9.90;99.90
18777;DHT22;9517;51.174;4.160;2023-02-03T22:00:49;9.80;99.90
18777;DHT22;9517;51.174;4.160;2023-02-03T22:03:22;9.80;99.90
18777;DHT22;9517;51.174;4.160;2023-02-03T22:06:08;9.80;99.90
18777;DHT22;9517;51.174;4.160;2023-02-03T22:08:40;9.90;99.90
18777;DHT22;9517;51.174;4.160;2023-02-03T22:11:09;9.90;99.90
18777;DHT22;9517;51.174;4.160;2023-02-03T22:13:36;10.00;99.90
18777;DHT22;9517;51.174;4.160;2023-02-03T22:16:04;10.00;99.90
18777;DHT22;9517;51.174;4.160;2023-02-03T22:18:32;10.00;99.90
18777;DHT22;9517;51.174;4.160;2023-02-03T22:21:01;10.00;99.90
18777;DHT22;9517;51.174;4.160;2023-02-03T22:23:30;10.00;99.90
18777;DHT22;9517;51.174;4.160;2023-02-03T22:25:58;10.00;99.90
18777;DHT22;9517;51.174;4.160;2023-02-03T22:28:25;10.10;99.90
18777;DHT22;9517;51.174;4.160;2023-02-03T22:30:52;10.10;99.90
18777;DHT22;9517;51.174;4.160;2023-02-03T22:33:20;10.10;99.90
18777;DHT22;9517;51.174;4.160;2023-02-03T22:35:47;10.10;99.90
18777;DHT22;9517;51.174;4.160;2023-02-03T22:38:16;10.20;99.90
18777;DHT22;9517;51.174;4.160;2023-02-03T22:40:43;10.20;99.90
18777;DHT22;9517;51.174;4.160;2023-02-03T22:43:10;10.20;99.90
18777;DHT22;9517;51.174;4.160;2023-02-03T22:45:37;10.20;99.90
18777;DHT22;9517;51.174;4.160;2023-02-03T22:48:05;10.20;99.90
18777;DHT22;9517;51.174;4.160;2023-02-03T22:50:32;10.20;99.90
18777;DHT22;9517;51.174;4.160;2023-02-03T22:52:59;10.20;99.90
18777;DHT22;9517;51.174;4.160;2023-02-03T22:55:30;10.20;99.90
18777;DHT22;9517;51.174;4.160;2023-02-03T22:57:58;10.10;99.90
18777;DHT22;9517;51.174;4.160;2023-02-03T23:00:25;10.10;99.90
18777;DHT22;9517;51.174;4.160;2023-02-03T23:02:56;10.20;99.90
18777;DHT22;9517;51.174;4.160;2023-02-03T23:05:23;10.10;99.90
18777;DHT22;9517;51.174;4.160;2023-02-03T23:07:51;10.10;99.90
18777;DHT22;9517;51.174;4.160;2023-02-03T23:10:20;10.20;99.90
18777;DHT22;9517;51.174;4.160;2023-02-03T23:12:49;10.20;99.90
18777;DHT22;9517;51.174;4.160;2023-02-03T23:15:17;10.20;99.90
18777;DHT22;9517;51.174;4.160;2023-02-03T23:17:45;10.20;99.90
18777;DHT22;9517;51.174;4.160;2023-02-03T23:20:14;10.20;99.90
18777;DHT22;9517;51.174;4.160;2023-02-03T23:22:43;10.20;99.90
18777;DHT22;9517;51.174;4.160;2023-02-03T23:25:11;10.30;99.90
18777;DHT22;9517;51.174;4.160;2023-02-03T23:27:38;10.30;99.90
18777;DHT22;9517;51.174;4.160;2023-02-03T23:30:09;10.20;99.90
18777;DHT22;9517;51.174;4.160;2023-02-03T23:32:36;10.30;99.90
18777;DHT22;9517;51.174;4.160;2023-02-03T23:35:04;10.30;99.90
18777;DHT22;9517;51.174;4.160;2023-02-03T23:38:03;10.30;99.90
18777;DHT22;9517;51.174;4.160;2023-02-03T23:40:30;10.40;99.90
18777;DHT22;9517;51.174;4.160;2023-02-03T23:42:57;10.30;99.90
18777;DHT22;9517;51.174;4.160;2023-02-03T23:45:26;10.40;99.90
18777;DHT22;9517;51.174;4.160;2023-02-03T23:47:56;10.40;99.90
18777;DHT22;9517;51.174;4.160;2023-02-03T23:50:23;10.50;99.90
18777;DHT22;9517;51.174;4.160;2023-02-03T23:52:51;10.70;99.90
18777;DHT22;9517;51.174;4.160;2023-02-03T23:55:19;10.50;99.90
18777;DHT22;9517;51.174;4.160;2023-02-03T23:57:46;10.40;99.90
